New Mighty — 3FMN — position and weather

sailwx.info

Track history (hours):
 
Tides and Currents Weather Stations Pressure Air Temp Water Temp Dewpoint Dewpoint Depression Visibility Wind Speed Wind Dir Waves Ship Positions

New Mighty

Last reported at 2017-Mar-17 06:19 UTC. Time now 2017-Mar-27 16:33 UTC.
Position N 21°01' E 110°57'.
Warning: this ship's position is 10 days out of date.

Length 292 m; draft 12 m.

Type: Cargo ship. MMSI: 354199000.

Date/timePositionNaut miles runAvg speedWind from/ knotsBaromVisibWave heightAir tempDewpointWater temp
2017-Mar-17 06:19N 21°01' E 110°57'911.1
2017-Mar-17 05:32N 21°01' E 110°48'9 8.7
2017-Mar-17 04:33N 21°03' E 110°39'1111.4
2017-Mar-17 03:33N 21°05' E 110°27'9 9.5
2017-Mar-17 02:33N 21°14' E 110°26'4 3.1
2017-Mar-17 01:22N 21°18' E 110°25'0 0.0
2017-Mar-17 00:31N 21°18' E 110°25'0 0.0
2017-Mar-16 23:31N 21°18' E 110°25'0 0.0
2017-Mar-16 22:31N 21°18' E 110°25'0 0.0
2017-Mar-16 21:25N 21°18' E 110°25'0 0.0
2017-Mar-16 20:16N 21°18' E 110°25'0 0.0
2017-Mar-16 19:19N 21°18' E 110°25'0 0.0
2017-Mar-16 18:31N 21°18' E 110°25'0 0.0
2017-Mar-16 17:28N 21°18' E 110°25'0 0.0
2017-Mar-16 16:25N 21°18' E 110°25'0 0.0
2017-Mar-16 15:25N 21°18' E 110°25'0 0.0
2017-Mar-16 14:31N 21°18' E 110°25'0 0.0
2017-Mar-16 13:25N 21°18' E 110°25'0 0.0
2017-Mar-16 12:31N 21°18' E 110°25'0 0.0
2017-Mar-16 11:31N 21°18' E 110°25'0 0.0
2017-Mar-16 10:28N 21°18' E 110°25'0 0.0
2017-Mar-16 09:28N 21°18' E 110°25'0 0.0
2017-Mar-16 08:28N 21°18' E 110°25'0 0.0
2017-Mar-16 07:31N 21°18' E 110°25'0 0.0
2017-Mar-16 06:28N 21°18' E 110°25'0 0.0
2017-Mar-16 05:28N 21°18' E 110°25'0 0.0
2017-Mar-16 04:31N 21°18' E 110°25'0 0.0
2017-Mar-16 03:28N 21°18' E 110°25'0 0.0
2017-Mar-16 02:31N 21°18' E 110°25'0 0.0
2017-Mar-16 01:22N 21°18' E 110°25'0 0.0
2017-Mar-16 00:16N 21°18' E 110°25'0 0.0
2017-Mar-15 23:31N 21°18' E 110°25'0 0.0
2017-Mar-15 22:16N 21°18' E 110°25'0 0.0
2017-Mar-15 21:28N 21°18' E 110°25'0 0.0
2017-Mar-15 20:28N 21°18' E 110°25'0 0.0
2017-Mar-15 19:28N 21°18' E 110°25'0 0.0
2017-Mar-15 18:25N 21°18' E 110°25'0 0.0
2017-Mar-15 17:31N 21°18' E 110°25'0 0.0
2017-Mar-15 16:31N 21°18' E 110°25'0 0.0
2017-Mar-15 15:31N 21°18' E 110°25'0 0.0
2017-Mar-15 14:31N 21°18' E 110°25'0 0.0
2017-Mar-15 13:28N 21°18' E 110°25'0 0.0
2017-Mar-15 12:31N 21°18' E 110°25'0 0.0
2017-Mar-15 11:31N 21°18' E 110°25'0 0.0
2017-Mar-15 10:28N 21°18' E 110°25'0 0.0
2017-Mar-15 09:22N 21°18' E 110°25'0 0.0
2017-Mar-15 08:25N 21°18' E 110°25'0 0.0
2017-Mar-15 07:28N 21°18' E 110°25'0 0.0
2017-Mar-15 06:33N 21°18' E 110°25'2 1.8
2017-Mar-15 05:33N 21°16' E 110°25'8 7.8
2017-Mar-15 04:33N 21°08' E 110°25'9 9.5
2017-Mar-15 03:33N 21°04' E 110°34'9 8.9
2017-Mar-15 02:33N 21°02' E 110°43'7 6.7
2017-Mar-15 01:32N 21°01' E 110°50'7 5.9
2017-Mar-15 00:26N 21°00' E 110°57'0 0.0
2017-Mar-14 17:04N 21°00' E 110°57'0 0.0
2017-Mar-14 16:28N 21°00' E 110°57'0 0.0
2017-Mar-14 05:04N 21°00' E 110°57'0 0.1
2017-Mar-14 04:16N 21°00' E 110°57'0 0.0
2017-Mar-14 02:31N 21°00' E 110°57'0 0.0
2017-Mar-14 01:31N 21°00' E 110°57'0 0.0
2017-Mar-14 00:28N 21°00' E 110°57'0 0.0
2017-Mar-13 19:04N 21°00' E 110°57'0 0.0
2017-Mar-13 09:28N 21°00' E 110°57'0 0.0
2017-Mar-12 20:28N 21°00' E 110°57'0 0.0
2017-Mar-12 16:10N 21°00' E 110°57'0 0.0
2017-Mar-11 22:16N 21°00' E 110°57'0 0.0
2017-Mar-11 21:22N 21°00' E 110°57'0 0.0
2017-Mar-11 20:28N 21°00' E 110°57'0 0.1
2017-Mar-11 19:28N 21°00' E 110°57'0 0.0
2017-Mar-11 17:07N 21°00' E 110°57'0 0.0
2017-Mar-10 14:10N 21°00' E 110°57'0 0.0
2017-Mar-10 13:31N 21°00' E 110°57'0 0.0
2017-Mar-10 12:19N 21°00' E 110°57'0 0.0
2017-Mar-10 11:31N 21°00' E 110°57'0 0.0
2017-Mar-10 10:31N 21°00' E 110°57'0 0.0
2017-Mar-10 09:25N 21°00' E 110°57'0 0.0
2017-Mar-10 08:22N 21°00' E 110°57'0 0.0
2017-Mar-10 07:28N 21°00' E 110°57'0 0.0
2017-Mar-09 09:31N 21°00' E 110°57'0 0.0
2017-Mar-09 08:25N 21°00' E 110°57'0 0.0
2017-Mar-09 07:22N 21°00' E 110°57'0 0.0
2017-Mar-09 05:25N 21°00' E 110°57'0 0.0
2017-Mar-09 02:22N 21°00' E 110°57'0 0.0
2017-Mar-09 01:16N 21°00' E 110°57'0 0.0
2017-Mar-09 00:19N 21°00' E 110°57'0 0.0
2017-Mar-08 23:31N 21°00' E 110°57'0 0.0
2017-Mar-08 22:22N 21°00' E 110°57'0 0.0
2017-Mar-08 21:22N 21°00' E 110°57'0 0.0
2017-Mar-08 20:22N 21°00' E 110°57'0 0.0
2017-Mar-08 16:22N 21°00' E 110°57'0 0.0
2017-Mar-08 06:28N 21°00' E 110°57'0 0.0
2017-Mar-08 03:28N 21°00' E 110°57'0 0.0
2017-Mar-08 02:28N 21°00' E 110°57'0 0.0
2017-Mar-08 01:28N 21°00' E 110°57'0 0.0
2017-Mar-07 23:22N 21°00' E 110°57'0 0.1
2017-Mar-07 22:28N 21°00' E 110°57'0 0.0
2017-Mar-07 21:31N 21°00' E 110°57'0 0.0
2017-Mar-07 20:10N 21°00' E 110°57'0 0.0
2017-Mar-07 19:13N 21°00' E 110°57'0 0.0
2017-Mar-07 18:31N 21°00' E 110°57'0 0.0
2017-Mar-07 10:13N 21°00' E 110°57'0 0.0
2017-Mar-07 08:07N 21°00' E 110°57'0 0.0
2017-Mar-07 06:22N 21°00' E 110°57'  
Track history (hours):
 
Tides and Currents Weather Stations Pressure Air Temp Water Temp Dewpoint Dewpoint Depression Visibility Wind Speed Wind Dir Waves Ship Positions

New Mighty

Last reported at 2017-Mar-17 06:19 UTC. Time now 2017-Mar-27 16:33 UTC.
Position N 21°01' E 110°57'.
Warning: this ship's position is 10 days out of date.

Length 292 m; draft 12 m.

Type: Cargo ship. MMSI: 354199000.

Date/timePositionNaut miles runAvg speedWind from/ knotsBaromVisibWave heightAir tempDewpointWater temp
2017-Mar-17 06:19N 21°01' E 110°57'911.1
2017-Mar-17 05:32N 21°01' E 110°48'9 8.7
2017-Mar-17 04:33N 21°03' E 110°39'1111.4
2017-Mar-17 03:33N 21°05' E 110°27'9 9.5
2017-Mar-17 02:33N 21°14' E 110°26'4 3.1
2017-Mar-17 01:22N 21°18' E 110°25'0 0.0
2017-Mar-17 00:31N 21°18' E 110°25'0 0.0
2017-Mar-16 23:31N 21°18' E 110°25'0 0.0
2017-Mar-16 22:31N 21°18' E 110°25'0 0.0
2017-Mar-16 21:25N 21°18' E 110°25'0 0.0
2017-Mar-16 20:16N 21°18' E 110°25'0 0.0
2017-Mar-16 19:19N 21°18' E 110°25'0 0.0
2017-Mar-16 18:31N 21°18' E 110°25'0 0.0
2017-Mar-16 17:28N 21°18' E 110°25'0 0.0
2017-Mar-16 16:25N 21°18' E 110°25'0 0.0
2017-Mar-16 15:25N 21°18' E 110°25'0 0.0
2017-Mar-16 14:31N 21°18' E 110°25'0 0.0
2017-Mar-16 13:25N 21°18' E 110°25'0 0.0
2017-Mar-16 12:31N 21°18' E 110°25'0 0.0
2017-Mar-16 11:31N 21°18' E 110°25'0 0.0
2017-Mar-16 10:28N 21°18' E 110°25'0 0.0
2017-Mar-16 09:28N 21°18' E 110°25'0 0.0
2017-Mar-16 08:28N 21°18' E 110°25'0 0.0
2017-Mar-16 07:31N 21°18' E 110°25'0 0.0
2017-Mar-16 06:28N 21°18' E 110°25'0 0.0
2017-Mar-16 05:28N 21°18' E 110°25'0 0.0
2017-Mar-16 04:31N 21°18' E 110°25'0 0.0
2017-Mar-16 03:28N 21°18' E 110°25'0 0.0
2017-Mar-16 02:31N 21°18' E 110°25'0 0.0
2017-Mar-16 01:22N 21°18' E 110°25'0 0.0
2017-Mar-16 00:16N 21°18' E 110°25'0 0.0
2017-Mar-15 23:31N 21°18' E 110°25'0 0.0
2017-Mar-15 22:16N 21°18' E 110°25'0 0.0
2017-Mar-15 21:28N 21°18' E 110°25'0 0.0
2017-Mar-15 20:28N 21°18' E 110°25'0 0.0
2017-Mar-15 19:28N 21°18' E 110°25'0 0.0
2017-Mar-15 18:25N 21°18' E 110°25'0 0.0
2017-Mar-15 17:31N 21°18' E 110°25'0 0.0
2017-Mar-15 16:31N 21°18' E 110°25'0 0.0
2017-Mar-15 15:31N 21°18' E 110°25'0 0.0
2017-Mar-15 14:31N 21°18' E 110°25'0 0.0
2017-Mar-15 13:28N 21°18' E 110°25'0 0.0
2017-Mar-15 12:31N 21°18' E 110°25'0 0.0
2017-Mar-15 11:31N 21°18' E 110°25'0 0.0
2017-Mar-15 10:28N 21°18' E 110°25'0 0.0
2017-Mar-15 09:22N 21°18' E 110°25'0 0.0
2017-Mar-15 08:25N 21°18' E 110°25'0 0.0
2017-Mar-15 07:28N 21°18' E 110°25'0 0.0
2017-Mar-15 06:33N 21°18' E 110°25'2 1.8
2017-Mar-15 05:33N 21°16' E 110°25'8 7.8
2017-Mar-15 04:33N 21°08' E 110°25'9 9.5
2017-Mar-15 03:33N 21°04' E 110°34'9 8.9
2017-Mar-15 02:33N 21°02' E 110°43'7 6.7
2017-Mar-15 01:32N 21°01' E 110°50'7 5.9
2017-Mar-15 00:26N 21°00' E 110°57'0 0.0
2017-Mar-14 17:04N 21°00' E 110°57'0 0.0
2017-Mar-14 16:28N 21°00' E 110°57'0 0.0
2017-Mar-14 05:04N 21°00' E 110°57'0 0.1
2017-Mar-14 04:16N 21°00' E 110°57'0 0.0
2017-Mar-14 02:31N 21°00' E 110°57'0 0.0
2017-Mar-14 01:31N 21°00' E 110°57'0 0.0
2017-Mar-14 00:28N 21°00' E 110°57'0 0.0
2017-Mar-13 19:04N 21°00' E 110°57'0 0.0
2017-Mar-13 09:28N 21°00' E 110°57'0 0.0
2017-Mar-12 20:28N 21°00' E 110°57'0 0.0
2017-Mar-12 16:10N 21°00' E 110°57'0 0.0
2017-Mar-11 22:16N 21°00' E 110°57'0 0.0
2017-Mar-11 21:22N 21°00' E 110°57'0 0.0
2017-Mar-11 20:28N 21°00' E 110°57'0 0.1
2017-Mar-11 19:28N 21°00' E 110°57'0 0.0
2017-Mar-11 17:07N 21°00' E 110°57'0 0.0
2017-Mar-10 14:10N 21°00' E 110°57'0 0.0
2017-Mar-10 13:31N 21°00' E 110°57'0 0.0
2017-Mar-10 12:19N 21°00' E 110°57'0 0.0
2017-Mar-10 11:31N 21°00' E 110°57'0 0.0
2017-Mar-10 10:31N 21°00' E 110°57'0 0.0
2017-Mar-10 09:25N 21°00' E 110°57'0 0.0
2017-Mar-10 08:22N 21°00' E 110°57'0 0.0
2017-Mar-10 07:28N 21°00' E 110°57'0 0.0
2017-Mar-09 09:31N 21°00' E 110°57'0 0.0
2017-Mar-09 08:25N 21°00' E 110°57'0 0.0
2017-Mar-09 07:22N 21°00' E 110°57'0 0.0
2017-Mar-09 05:25N 21°00' E 110°57'0 0.0
2017-Mar-09 02:22N 21°00' E 110°57'0 0.0
2017-Mar-09 01:16N 21°00' E 110°57'0 0.0
2017-Mar-09 00:19N 21°00' E 110°57'0 0.0
2017-Mar-08 23:31N 21°00' E 110°57'0 0.0
2017-Mar-08 22:22N 21°00' E 110°57'0 0.0
2017-Mar-08 21:22N 21°00' E 110°57'0 0.0
2017-Mar-08 20:22N 21°00' E 110°57'0 0.0
2017-Mar-08 16:22N 21°00' E 110°57'0 0.0
2017-Mar-08 06:28N 21°00' E 110°57'0 0.0
2017-Mar-08 03:28N 21°00' E 110°57'0 0.0
2017-Mar-08 02:28N 21°00' E 110°57'0 0.0
2017-Mar-08 01:28N 21°00' E 110°57'0 0.0
2017-Mar-07 23:22N 21°00' E 110°57'0 0.1
2017-Mar-07 22:28N 21°00' E 110°57'0 0.0
2017-Mar-07 21:31N 21°00' E 110°57'0 0.0
2017-Mar-07 20:10N 21°00' E 110°57'0 0.0
2017-Mar-07 19:13N 21°00' E 110°57'0 0.0
2017-Mar-07 18:31N 21°00' E 110°57'0 0.0
2017-Mar-07 10:13N 21°00' E 110°57'0 0.0
2017-Mar-07 08:07N 21°00' E 110°57'0 0.0
2017-Mar-07 06:22N 21°00' E 110°57'  

Dump ship's entire track history